Time;durP1;ratioP1;P1;durP2;ratioP2;P2;SDS_P1;SDS_P2;PMS_P1;PMS_P2;Temp;Humidity;BMP_temperature;BMP_pressure;BME280_temperature;BME280_humidity;BME280_pressure;Samples;Min_cycle;Max_cycle;Signal;HPM_P1;HPM_P2
2022/12/03 00:00:36;;;;;;;62.63;15.52;;;;;;;7.44;100.00;97734.06;4968754;28;20132;-59
2022/12/03 00:03:03;;;;;;;74.57;15.88;;;;;;;7.68;100.00;97754.31;4968644;28;20097;-56
2022/12/03 00:05:30;;;;;;;75.40;16.63;;;;;;;7.82;100.00;97747.75;4968734;28;20046;-56
2022/12/03 00:07:56;;;;;;;71.70;15.73;;;;;;;7.66;100.00;97755.81;4968489;28;20556;-59
2022/12/03 00:10:23;;;;;;;80.85;16.63;;;;;;;7.81;100.00;97757.19;4967263;28;20510;-59
2022/12/03 00:12:50;;;;;;;90.75;16.95;;;;;;;7.74;100.00;97763.22;4968528;28;20109;-56
2022/12/03 00:15:16;;;;;;;85.57;18.25;;;;;;;7.90;100.00;97766.19;4968555;28;20058;-59
2022/12/03 00:17:43;;;;;;;74.22;16.92;;;;;;;7.98;100.00;97752.34;4968568;28;20314;-60
2022/12/03 00:20:17;;;;;;;80.45;16.27;;;;;;;8.08;100.00;97762.16;4968160;28;20125;-60
2022/12/03 00:22:44;;;;;;;66.22;16.85;;;;;;;8.04;100.00;97766.72;4968504;28;20047;-61
2022/12/03 00:25:11;;;;;;;81.82;17.02;;;;;;;7.91;100.00;97763.09;4968315;28;20493;-56
2022/12/03 00:27:37;;;;;;;79.28;17.92;;;;;;;7.56;100.00;97718.41;4968211;28;20141;-57
2022/12/03 00:30:05;;;;;;;86.20;18.33;;;;;;;8.01;100.00;97767.41;4981747;28;20078;-59
2022/12/03 00:32:31;;;;;;;103.32;19.80;;;;;;;8.05;100.00;97762.81;4968333;28;20265;-60
2022/12/03 00:34:58;;;;;;;73.50;16.25;;;;;;;8.18;100.00;97761.75;4968525;28;20154;-60
2022/12/03 00:37:25;;;;;;;67.25;17.67;;;;;;;7.06;100.00;97681.75;4968148;28;20062;-56
2022/12/03 00:39:51;;;;;;;92.82;21.05;;;;;;;7.32;100.00;97743.03;4967873;28;20976;-59
2022/12/03 00:42:18;;;;;;;83.15;18.92;;;;;;;7.52;100.00;97769.03;4967879;28;20142;-57
2022/12/03 00:44:44;;;;;;;85.80;17.80;;;;;;;7.44;100.00;97770.69;4968384;28;20489;-59
2022/12/03 00:47:11;;;;;;;66.70;13.68;;;;;;;7.25;100.00;97789.59;4966996;28;20349;-59
2022/12/03 00:49:38;;;;;;;80.32;15.63;;;;;;;7.10;100.00;97781.84;4968158;28;20059;-57
2022/12/03 00:52:05;;;;;;;72.28;16.42;;;;;;;7.14;100.00;97782.84;4968099;28;20101;-56
2022/12/03 00:54:31;;;;;;;74.53;16.70;;;;;;;6.81;100.00;97790.03;4968146;28;20477;-59
2022/12/03 00:56:58;;;;;;;58.13;10.93;;;;;;;6.12;100.00;97701.31;4968145;28;20454;-56
2022/12/03 00:59:25;;;;;;;57.95;12.88;;;;;;;6.54;100.00;97806.94;4967269;28;20117;-56
2022/12/03 01:01:51;;;;;;;70.55;13.25;;;;;;;6.08;100.00;97749.03;4967720;28;20133;-57
2022/12/03 01:04:18;;;;;;;63.28;13.48;;;;;;;6.62;100.00;97802.56;4967840;28;20142;-57
2022/12/03 01:06:45;;;;;;;58.67;11.65;;;;;;;6.52;100.00;97787.19;4967655;28;20050;-56
2022/12/03 01:09:11;;;;;;;70.32;15.07;;;;;;;6.77;100.00;97800.09;4967834;28;20138;-60
2022/12/03 01:11:38;;;;;;;76.00;15.23;;;;;;;6.39;100.00;97760.66;4967045;28;20514;-57
2022/12/03 01:14:10;;;;;;;79.63;14.23;;;;;;;6.78;100.00;97803.69;4967859;28;20506;-58
2022/12/03 01:16:38;;;;;;;41.13;12.02;;;;;;;6.30;100.00;97759.88;4967424;28;20129;-57
2022/12/03 01:19:05;;;;;;;68.57;14.23;;;;;;;6.21;100.00;97761.81;4967134;28;20176;-60
2022/12/03 01:21:33;;;;;;;58.85;13.40;;;;;;;6.61;100.00;97807.25;4966945;28;20097;-59
2022/12/03 01:23:59;;;;;;;78.28;14.15;;;;;;;6.56;100.00;97810.16;4967194;28;20138;-60
2022/12/03 01:26:26;;;;;;;69.90;14.52;;;;;;;6.50;100.00;97816.16;4966660;28;20505;-59
2022/12/03 01:28:52;;;;;;;93.07;17.05;;;;;;;6.65;100.00;97813.75;4965531;28;20042;-56
2022/12/03 01:34:05;;;;;;;96.75;16.83;;;;;;;6.89;100.00;97814.00;4967523;28;20103;-60
2022/12/03 01:36:35;;;;;;;120.28;16.15;;;;;;;7.07;100.00;97815.56;4967183;28;20109;-59
2022/12/03 01:39:02;;;;;;;65.20;13.68;;;;;;;6.85;100.00;97820.50;4967216;28;20545;-59
2022/12/03 01:41:30;;;;;;;85.05;14.32;;;;;;;7.01;100.00;97827.91;4967025;28;21009;-55
2022/12/03 01:43:58;;;;;;;68.43;14.38;;;;;;;6.87;100.00;97821.78;4967086;28;20051;-56
2022/12/03 01:46:33;;;;;;;70.95;14.80;;;;;;;6.93;100.00;97825.16;4965747;28;20061;-59
2022/12/03 01:49:00;;;;;;;54.58;11.77;;;;;;;6.70;100.00;97816.31;4967429;28;20051;-55
2022/12/03 01:51:28;;;;;;;70.93;11.20;;;;;;;6.51;100.00;97824.13;4966936;28;20530;-56
2022/12/03 01:54:03;;;;;;;65.82;12.27;;;;;;;5.87;100.00;97743.38;4967085;28;20117;-60
2022/12/03 01:56:30;;;;;;;73.85;12.55;;;;;;;6.39;100.00;97823.94;4967172;28;20054;-58
2022/12/03 01:58:56;;;;;;;79.20;15.35;;;;;;;6.68;100.00;97815.84;4966328;28;20133;-60
2022/12/03 02:01:23;;;;;;;67.15;14.70;;;;;;;6.37;100.00;97776.69;4965236;28;20059;-55
2022/12/03 02:03:49;;;;;;;90.28;14.15;;;;;;;6.73;100.00;97823.13;4966897;28;20466;-60
2022/12/03 02:06:21;;;;;;;73.22;14.60;;;;;;;6.41;100.00;97780.41;4966418;28;20055;-55
2022/12/03 02:08:49;;;;;;;60.72;10.80;;;;;;;6.40;100.00;97822.00;4966494;28;20477;-55
2022/12/03 02:11:32;;;;;;;70.47;12.27;;;;;;;6.50;100.00;97816.97;4965471;28;20050;-56
2022/12/03 02:14:02;;;;;;;90.38;16.50;;;;;;;6.41;100.00;97818.94;4966159;28;20149;-56
2022/12/03 02:16:29;;;;;;;79.75;13.18;;;;;;;6.60;100.00;97819.41;4965301;28;20141;-59
2022/12/03 02:18:57;;;;;;;64.50;12.10;;;;;;;6.56;100.00;97804.66;4965973;28;20145;-60
2022/12/03 02:21:34;;;;;;;84.63;12.40;;;;;;;6.90;100.00;97821.13;4965948;28;20116;-59
2022/12/03 02:24:15;;;;;;;56.33;14.18;;;;;;;6.81;100.00;97806.56;4964669;28;20051;-59
2022/12/03 02:26:42;;;;;;;52.95;11.98;;;;;;;7.06;100.00;97829.69;4950192;28;20258;-59
2022/12/03 02:29:08;;;;;;;75.55;12.23;;;;;;;7.19;100.00;97821.19;4966091;28;20074;-55
2022/12/03 02:31:35;;;;;;;76.25;12.98;;;;;;;7.25;100.00;97833.69;4965787;28;20047;-59
2022/12/03 02:34:09;;;;;;;57.97;13.60;;;;;;;7.29;100.00;97823.59;4965951;28;20461;-59
2022/12/03 02:36:37;;;;;;;42.20;9.77;;;;;;;7.39;100.00;97823.25;4965730;28;20502;-57
2022/12/03 02:39:04;;;;;;;56.45;9.93;;;;;;;7.38;100.00;97829.09;4966042;28;20051;-59
2022/12/03 02:44:16;;;;;;;46.47;10.85;;;;;;;7.39;100.00;97817.75;4965845;28;20165;-59
2022/12/03 02:46:43;;;;;;;40.22;10.55;;;;;;;7.37;100.00;97828.28;4963935;28;20710;-56
2022/12/03 02:49:10;;;;;;;38.50;9.95;;;;;;;7.37;100.00;97842.06;4966001;28;20065;-59
2022/12/03 02:51:36;;;;;;;35.63;9.65;;;;;;;7.09;100.00;97799.53;4964402;28;20573;-55
2022/12/03 02:54:03;;;;;;;41.35;9.05;;;;;;;7.23;100.00;97830.44;4964935;28;20133;-59
2022/12/03 02:56:31;;;;;;;38.65;9.13;;;;;;;6.98;100.00;97834.09;4965699;28;20126;-57
2022/12/03 02:59:02;;;;;;;34.90;10.13;;;;;;;6.54;100.00;97795.94;4965468;28;20051;-56
2022/12/03 03:01:29;;;;;;;37.42;9.35;;;;;;;7.07;100.00;97837.63;4980292;28;20097;-60
2022/12/03 03:03:57;;;;;;;48.08;10.85;;;;;;;7.04;100.00;97838.28;4963781;28;20051;-56
2022/12/03 03:06:24;;;;;;;31.08;10.70;;;;;;;7.11;100.00;97838.56;4965468;28;20121;-56
2022/12/03 03:08:51;;;;;;;38.85;10.38;;;;;;;7.19;100.00;97851.50;4964097;28;20134;-61
2022/12/03 03:11:18;;;;;;;32.00;8.68;;;;;;;6.89;100.00;97841.53;4965088;28;20082;-58
2022/12/03 03:13:45;;;;;;;30.00;8.90;;;;;;;7.15;100.00;97838.72;4965407;28;20085;-59
2022/12/03 03:16:11;;;;;;;32.22;10.05;;;;;;;7.02;100.00;97817.69;4965323;28;20149;-55
2022/12/03 03:18:38;;;;;;;32.70;10.35;;;;;;;7.24;100.00;97843.06;4965205;28;20537;-55
2022/12/03 03:21:06;;;;;;;28.90;10.82;;;;;;;7.29;100.00;97851.16;4964550;28;20086;-56
2022/12/03 03:23:33;;;;;;;27.77;9.95;;;;;;;7.38;100.00;97849.16;4964455;28;20133;-56
2022/12/03 03:26:04;;;;;;;27.92;9.65;;;;;;;7.37;100.00;97847.56;4965034;28;20589;-56
2022/12/03 03:28:35;;;;;;;31.55;9.57;;;;;;;7.39;100.00;97853.56;4965189;28;20081;-55
2022/12/03 03:31:04;;;;;;;22.67;8.18;;;;;;;7.48;100.00;97853.50;4965587;28;20113;-55
2022/12/03 03:33:31;;;;;;;25.27;9.35;;;;;;;7.20;100.00;97820.09;4965189;28;20134;-61
2022/12/03 03:35:59;;;;;;;29.63;9.77;;;;;;;7.47;100.00;97852.72;4965042;28;20145;-55
2022/12/03 03:38:27;;;;;;;21.65;8.82;;;;;;;7.38;100.00;97860.19;4963964;28;20517;-60
2022/12/03 03:40:56;;;;;;;21.75;8.63;;;;;;;7.26;100.00;97851.00;4965002;28;20046;-56
2022/12/03 03:43:23;;;;;;;31.50;10.57;;;;;;;6.92;100.00;97862.13;4965023;28;20051;-61
2022/12/03 03:45:52;;;;;;;27.85;10.30;;;;;;;7.15;100.00;97861.56;4965113;28;20062;-60
2022/12/03 03:48:20;;;;;;;22.20;9.15;;;;;;;6.75;100.00;97840.91;4965070;28;20051;-56
2022/12/03 03:50:49;;;;;;;27.10;9.85;;;;;;;6.25;100.00;97797.72;4963892;28;20094;-60
2022/12/03 03:53:16;;;;;;;25.52;10.65;;;;;;;6.66;100.00;97869.59;4963315;28;20050;-55
2022/12/03 03:55:43;;;;;;;29.25;11.15;;;;;;;6.65;100.00;97857.78;4964722;28;20105;-56
2022/12/03 03:58:10;;;;;;;36.67;11.88;;;;;;;6.59;100.00;97856.31;4964844;28;20133;-60
2022/12/03 04:00:37;;;;;;;28.98;9.82;;;;;;;6.63;100.00;97860.03;4964759;28;20118;-60
2022/12/03 04:03:05;;;;;;;29.75;9.45;;;;;;;6.14;100.00;97806.31;4964594;28;20133;-56
2022/12/03 04:05:32;;;;;;;25.45;10.90;;;;;;;6.43;100.00;97827.69;4965099;28;20137;-61
2022/12/03 04:07:58;;;;;;;26.10;10.65;;;;;;;6.74;100.00;97861.34;4963526;28;20056;-57
2022/12/03 04:13:10;;;;;;;22.60;9.57;;;;;;;6.61;100.00;97878.81;4965116;28;20054;-61
2022/12/03 04:15:37;;;;;;;30.05;10.18;;;;;;;6.59;100.00;97869.28;4963596;28;20441;-61
2022/12/03 04:20:48;;;;;;;33.17;11.60;;;;;;;6.46;100.00;97875.75;4964865;28;20170;-56
2022/12/03 04:23:15;;;;;;;27.65;9.45;;;;;;;6.29;100.00;97876.56;4964881;28;20078;-60
2022/12/03 04:36:42;;;;;;;30.60;11.48;;;;;;;6.53;100.00;97884.34;4968123;28;20570;-56
2022/12/03 04:39:08;;;;;;;36.15;11.23;;;;;;;6.60;100.00;97860.69;4968289;28;20047;-61
2022/12/03 04:41:35;;;;;;;33.15;10.60;;;;;;;6.57;100.00;97875.09;4968027;28;20477;-61
2022/12/03 04:46:47;;;;;;;21.92;8.27;;;;;;;6.28;100.00;97880.44;4967620;28;20542;-61
2022/12/03 04:49:13;;;;;;;24.58;9.90;;;;;;;6.32;100.00;97875.91;4968163;28;20636;-61
2022/12/03 04:51:40;;;;;;;26.02;9.63;;;;;;;6.38;100.00;97869.13;4967852;28;20145;-56
2022/12/03 04:54:06;;;;;;;20.15;8.90;;;;;;;6.10;100.00;97785.28;4967605;28;20581;-58
2022/12/03 04:56:33;;;;;;;20.77;9.25;;;;;;;6.69;100.00;97880.75;4967701;28;20057;-56
2022/12/03 04:59:00;;;;;;;25.75;9.18;;;;;;;6.40;100.00;97888.88;4967653;28;20121;-58
2022/12/03 05:01:26;;;;;;;18.35;7.55;;;;;;;6.32;100.00;97886.91;4967368;28;20510;-56
2022/12/03 05:03:53;;;;;;;25.92;8.65;;;;;;;6.18;100.00;97891.72;4967810;28;20078;-61
2022/12/03 05:06:20;;;;;;;18.02;7.63;;;;;;;5.88;100.00;97854.16;4967638;28;20117;-57
2022/12/03 05:08:47;;;;;;;20.38;8.15;;;;;;;6.12;100.00;97901.28;4967693;28;20062;-61
2022/12/03 05:11:14;;;;;;;27.75;8.20;;;;;;;6.18;100.00;97907.44;4965895;28;20059;-56
2022/12/03 05:13:40;;;;;;;15.52;7.00;;;;;;;6.15;100.00;97903.38;4967426;28;20047;-62
2022/12/03 05:16:09;;;;;;;27.65;9.15;;;;;;;6.19;100.00;97904.38;4967779;28;20138;-59
2022/12/03 05:18:36;;;;;;;30.15;9.30;;;;;;;6.08;100.00;97903.06;4967181;28;20064;-61
2022/12/03 05:21:02;;;;;;;21.10;7.95;;;;;;;6.15;100.00;97898.69;4967667;28;20162;-56
2022/12/03 05:23:29;;;;;;;18.33;7.82;;;;;;;5.96;100.00;97872.59;4967165;28;20633;-61
2022/12/03 05:25:56;;;;;;;24.83;8.85;;;;;;;6.10;100.00;97900.81;4966837;28;20093;-57
2022/12/03 05:28:23;;;;;;;26.45;9.35;;;;;;;6.22;100.00;97909.22;4965462;28;20138;-56
2022/12/03 05:30:50;;;;;;;17.35;8.27;;;;;;;6.45;100.00;97907.94;4967203;28;20062;-56
2022/12/03 05:33:17;;;;;;;18.60;8.15;;;;;;;6.53;100.00;97909.91;4967356;28;20109;-60
2022/12/03 05:35:44;;;;;;;16.13;7.70;;;;;;;6.69;100.00;97913.78;4967263;28;20058;-57
2022/12/03 05:38:10;;;;;;;14.25;7.05;;;;;;;6.70;100.00;97920.91;4967117;28;20134;-61
2022/12/03 05:40:37;;;;;;;12.43;6.60;;;;;;;6.72;100.00;97917.88;4966798;28;20050;-61
2022/12/03 05:43:04;;;;;;;15.93;7.50;;;;;;;6.24;100.00;97857.47;4967021;28;20109;-61
2022/12/03 05:45:33;;;;;;;14.15;7.05;;;;;;;6.83;100.00;97917.19;4966949;28;20130;-56
2022/12/03 05:48:00;;;;;;;14.45;7.53;;;;;;;7.08;100.00;97916.34;4966648;28;20485;-56
2022/12/03 05:50:29;;;;;;;13.75;6.88;;;;;;;7.10;100.00;97933.38;4966696;28;20076;-56
2022/12/03 05:52:57;;;;;;;14.65;6.55;;;;;;;7.24;100.00;97914.72;4966631;28;20049;-61
2022/12/03 05:55:24;;;;;;;12.23;6.95;;;;;;;7.24;100.00;97914.72;4966556;28;20102;-57
2022/12/03 05:57:51;;;;;;;12.55;6.75;;;;;;;6.83;100.00;97914.44;4966519;28;20050;-61
2022/12/03 06:00:23;;;;;;;13.32;6.07;;;;;;;6.90;100.00;97917.53;4966728;28;20058;-62
2022/12/03 06:02:50;;;;;;;13.57;6.95;;;;;;;7.19;100.00;97917.63;4965444;28;20418;-56
2022/12/03 06:05:18;;;;;;;12.32;6.40;;;;;;;7.25;100.00;97924.63;4966650;28;20105;-57
2022/12/03 06:07:46;;;;;;;12.38;7.00;;;;;;;7.27;100.00;97925.06;4966637;28;20583;-61
2022/12/03 06:10:15;;;;;;;12.35;6.55;;;;;;;7.35;100.00;97926.22;4966224;28;20058;-62
2022/12/03 06:12:42;;;;;;;9.88;5.60;;;;;;;7.38;100.00;97926.34;4966583;28;20485;-61
2022/12/03 06:15:10;;;;;;;11.35;6.07;;;;;;;7.42;100.00;97938.34;4966487;28;20051;-56
2022/12/03 06:17:36;;;;;;;10.70;5.88;;;;;;;7.12;100.00;97884.28;4966237;28;20154;-56
2022/12/03 06:20:03;;;;;;;10.15;5.82;;;;;;;7.24;100.00;97892.66;4966523;28;20121;-56
2022/12/03 06:22:30;;;;;;;17.70;13.18;;;;;;;7.58;100.00;97944.97;4965861;28;20585;-59
2022/12/03 06:24:57;;;;;;;14.85;7.32;;;;;;;7.53;100.00;97947.88;4966519;28;20134;-56
2022/12/03 06:27:31;;;;;;;11.30;6.97;;;;;;;7.47;100.00;97929.09;4965943;28;20066;-61
2022/12/03 06:29:58;;;;;;;11.50;6.70;;;;;;;7.70;100.00;97950.59;4966138;28;20055;-56
2022/12/03 06:32:25;;;;;;;10.38;5.65;;;;;;;7.62;100.00;97954.19;4965759;28;20568;-61
2022/12/03 06:34:51;;;;;;;14.52;6.88;;;;;;;7.63;100.00;97958.53;4966473;28;20133;-61
2022/12/03 06:37:18;;;;;;;13.30;6.13;;;;;;;7.60;100.00;97941.88;4964860;28;20050;-58
2022/12/03 06:39:45;;;;;;;12.00;6.63;;;;;;;7.62;100.00;97954.19;4966182;28;20086;-56
2022/12/03 06:42:12;;;;;;;13.52;6.68;;;;;;;7.63;100.00;97947.50;4966035;28;20153;-57
2022/12/03 06:44:38;;;;;;;12.57;6.63;;;;;;;7.65;100.00;97952.69;4964478;28;20047;-61
2022/12/03 06:47:05;;;;;;;13.77;7.30;;;;;;;7.69;100.00;97954.50;4966002;28;20061;-60
2022/12/03 06:49:32;;;;;;;12.35;6.75;;;;;;;7.61;100.00;97924.19;4965755;28;20058;-60
2022/12/03 06:51:58;;;;;;;11.93;6.72;;;;;;;7.07;100.00;97942.28;4964614;28;20149;-56
2022/12/03 06:54:25;;;;;;;13.10;7.47;;;;;;;7.07;100.00;97958.81;4966075;28;20190;-59
2022/12/03 06:56:52;;;;;;;14.30;7.78;;;;;;;7.19;100.00;97950.69;4965116;28;20047;-61
2022/12/03 06:59:18;;;;;;;20.30;8.18;;;;;;;7.36;100.00;97939.66;4966006;28;20141;-61
2022/12/03 07:01:45;;;;;;;14.02;6.95;;;;;;;7.65;100.00;97983.84;4965951;28;20055;-60
2022/12/03 07:04:11;;;;;;;13.98;7.63;;;;;;;7.51;100.00;97974.97;4965184;28;20262;-56
2022/12/03 07:06:38;;;;;;;12.63;7.30;;;;;;;7.67;100.00;97962.28;4965485;28;20059;-56
2022/12/03 07:09:05;;;;;;;10.88;6.10;;;;;;;7.81;100.00;97961.25;4965434;28;20133;-56
2022/12/03 07:11:31;;;;;;;11.10;6.82;;;;;;;7.83;100.00;97961.72;4965201;28;20063;-59
2022/12/03 07:14:00;;;;;;;11.75;6.75;;;;;;;7.63;100.00;97966.03;4961516;28;20142;-66
2022/12/03 07:16:31;;;;;;;15.75;7.22;;;;;;;7.79;100.00;97972.63;4964425;28;20081;-61
2022/12/03 07:18:58;;;;;;;15.00;7.47;;;;;;;8.00;100.00;97964.44;4964925;28;20498;-61
2022/12/03 07:21:24;;;;;;;13.75;6.97;;;;;;;8.08;100.00;97966.34;4963285;28;20519;-64
2022/12/03 07:23:51;;;;;;;14.02;7.03;;;;;;;7.53;100.00;97881.72;4964929;28;20487;-57
2022/12/03 07:26:18;;;;;;;12.38;6.72;;;;;;;7.47;100.00;97968.50;4964749;28;20082;-59
2022/12/03 07:28:47;;;;;;;15.23;7.55;;;;;;;7.46;100.00;97971.59;4963985;28;20117;-65
2022/12/03 07:31:14;;;;;;;14.23;8.25;;;;;;;7.35;100.00;97910.47;4964685;28;20105;-57
2022/12/03 07:33:41;;;;;;;15.38;7.45;;;;;;;7.81;100.00;97966.78;4964585;28;20069;-58
2022/12/03 07:36:08;;;;;;;12.95;7.32;;;;;;;8.00;100.00;97970.75;4964768;28;20054;-64
2022/12/03 07:38:35;;;;;;;17.48;8.77;;;;;;;8.01;100.00;97968.81;4964381;28;20050;-56
2022/12/03 07:41:02;;;;;;;12.82;7.85;;;;;;;8.16;100.00;97968.22;4962867;28;20086;-60
2022/12/03 07:43:28;;;;;;;11.50;7.00;;;;;;;7.84;100.00;97963.38;4964705;28;20137;-65
2022/12/03 07:45:55;;;;;;;12.82;6.65;;;;;;;8.08;100.00;97960.84;4963906;28;20146;-57
2022/12/03 07:48:21;;;;;;;10.35;6.10;;;;;;;7.94;100.00;97960.22;4964258;28;20062;-56
2022/12/03 07:50:48;;;;;;;10.75;6.32;;;;;;;8.22;100.00;97966.94;4964679;28;20422;-57
2022/12/03 07:53:15;;;;;;;8.70;5.55;;;;;;;8.52;100.00;97972.13;4964433;28;20047;-67
2022/12/03 07:55:41;;;;;;;11.98;5.00;;;;;;;8.76;100.00;97961.25;4964518;28;20055;-62
2022/12/03 07:58:08;;;;;;;11.98;6.93;;;;;;;8.62;100.00;97968.16;4964345;28;20141;-57
2022/12/03 08:00:35;;;;;;;11.75;7.18;;;;;;;8.43;100.00;97918.91;4962847;28;20113;-60
2022/12/03 08:03:01;;;;;;;12.50;7.90;;;;;;;8.38;100.00;97910.00;4964094;28;20524;-56
2022/12/03 08:05:28;;;;;;;20.95;12.35;;;;;;;9.07;100.00;97971.91;4964276;28;20140;-59
2022/12/03 08:07:55;;;;;;;20.60;12.55;;;;;;;9.11;100.00;97972.84;4963879;28;20525;-59
2022/12/03 08:10:24;;;;;;;16.33;11.18;;;;;;;9.18;100.00;97973.13;4967257;28;20059;-56
2022/12/03 08:12:52;;;;;;;14.70;9.52;;;;;;;8.94;100.00;97901.13;4968050;28;20051;-55
2022/12/03 08:15:24;;;;;;;18.20;10.43;;;;;;;9.38;100.00;97977.78;4967886;28;20304;-59
2022/12/03 08:17:54;;;;;;;9.18;6.05;;;;;;;9.38;100.00;97971.44;4966445;28;20093;-58
2022/12/03 08:20:23;;;;;;;15.27;8.77;;;;;;;9.50;100.00;97972.31;4968075;28;20587;-59
2022/12/03 08:22:52;;;;;;;16.17;8.75;;;;;;;9.05;100.00;97891.28;4967701;28;20062;-57
2022/12/03 08:25:26;;;;;;;8.80;6.55;;;;;;;9.82;100.00;97979.78;4964231;28;20126;-66
2022/12/03 08:28:02;;;;;;;9.35;6.22;;;;;;;9.88;100.00;97975.63;4967345;28;20588;-60
2022/12/03 08:30:28;;;;;;;10.38;7.60;;;;;;;9.55;98.91;97889.13;4966829;28;20046;-69
2022/12/03 08:32:57;;;;;;;8.07;5.72;;;;;;;9.93;97.64;97967.13;4966777;28;20581;-57
2022/12/03 08:35:26;;;;;;;10.52;7.50;;;;;;;10.13;97.64;97977.31;4967140;28;20102;-56
2022/12/03 08:37:59;;;;;;;8.73;6.95;;;;;;;10.20;97.79;97962.91;4959150;28;20585;-59
2022/12/03 08:40:35;;;;;;;13.02;9.32;;;;;;;10.49;96.82;97985.66;4964620;28;20117;-62
2022/12/03 08:43:17;;;;;;;9.15;6.38;;;;;;;10.13;94.57;97960.69;4957991;28;20144;-57
2022/12/03 08:45:44;;;;;;;9.80;6.10;;;;;;;8.99;100.00;97975.53;4967396;28;20125;-57
2022/12/03 08:48:26;;;;;;;9.45;6.20;;;;;;;8.76;100.00;97966.78;4956108;28;20626;-66
2022/12/03 08:50:55;;;;;;;9.38;6.28;;;;;;;8.74;100.00;97929.59;4947232;28;20134;-55
2022/12/03 08:53:35;;;;;;;9.27;6.43;;;;;;;9.55;100.00;97974.84;4955452;28;20043;-64
2022/12/03 08:56:12;;;;;;;17.38;11.02;;;;;;;9.34;100.00;97946.47;4965278;28;20108;-57
2022/12/03 08:58:45;;;;;;;8.80;5.68;;;;;;;9.26;100.00;97977.75;4965849;28;20565;-58
2022/12/03 09:01:11;;;;;;;8.60;5.15;;;;;;;9.03;100.00;97976.47;4966595;28;20069;-63
2022/12/03 09:03:47;;;;;;;7.75;5.72;;;;;;;7.91;100.00;97856.06;4965383;28;20113;-57
2022/12/03 09:06:14;;;;;;;10.20;6.57;;;;;;;8.64;100.00;97975.00;4957825;28;20134;-57
2022/12/03 09:08:41;;;;;;;10.98;6.90;;;;;;;9.10;100.00;97949.13;4963510;28;20082;-65
2022/12/03 09:11:07;;;;;;;10.40;6.75;;;;;;;8.88;100.00;97968.81;4966546;28;20565;-57
2022/12/03 09:13:34;;;;;;;8.77;5.50;;;;;;;8.89;100.00;97964.88;4965179;28;20141;-66
2022/12/03 09:16:00;;;;;;;8.82;5.70;;;;;;;8.86;100.00;97962.81;4964246;28;20161;-66
2022/12/03 09:18:27;;;;;;;7.93;5.75;;;;;;;9.12;100.00;97921.94;4965013;28;20113;-60
2022/12/03 09:20:55;;;;;;;9.80;5.97;;;;;;;9.75;100.00;97964.91;4947021;28;20051;-57
2022/12/03 09:23:22;;;;;;;10.90;6.55;;;;;;;9.60;99.29;97916.56;4961037;28;20134;-59
2022/12/03 09:25:49;;;;;;;9.18;6.53;;;;;;;9.25;100.00;97967.03;4966206;28;20055;-60
2022/12/03 09:28:15;;;;;;;9.23;6.00;;;;;;;9.40;100.00;97950.63;4964825;28;20552;-58
2022/12/03 09:30:42;;;;;;;8.15;5.75;;;;;;;9.46;98.41;97877.34;4962594;28;20145;-64
2022/12/03 09:33:09;;;;;;;15.38;10.30;;;;;;;10.24;98.80;97961.06;4970299;28;20050;-57
2022/12/03 09:35:36;;;;;;;10.55;8.00;;;;;;;10.14;95.34;97956.78;4966706;28;20121;-65
2022/12/03 09:38:02;;;;;;;10.07;6.35;;;;;;;8.79;98.88;97883.22;4974209;28;20051;-63
2022/12/03 09:40:29;;;;;;;9.65;6.78;;;;;;;9.59;100.00;97945.38;4965629;28;20149;-59
2022/12/03 09:42:59;;;;;;;9.65;6.47;;;;;;;10.09;98.69;97940.41;4954030;28;20815;-58
2022/12/03 09:45:26;;;;;;;8.05;5.65;;;;;;;10.25;95.12;97946.88;4947992;28;20139;-61
2022/12/03 09:47:53;;;;;;;9.82;7.00;;;;;;;10.42;95.93;97938.31;4946823;28;20205;-61
2022/12/03 09:50:25;;;;;;;11.38;6.90;;;;;;;10.67;94.24;97936.31;4947120;28;20097;-63
2022/12/03 09:52:55;;;;;;;9.55;6.10;;;;;;;10.39;92.45;97938.22;4947274;28;20403;-59
2022/12/03 09:55:25;;;;;;;11.27;7.13;;;;;;;9.98;96.42;97941.97;4946700;29;20069;-63
2022/12/03 09:57:53;;;;;;;7.28;5.25;;;;;;;9.48;96.55;97940.63;4947109;28;20113;-62
2022/12/03 10:00:27;;;;;;;8.45;6.28;;;;;;;9.62;98.87;97930.03;4968915;28;20253;-60
2022/12/03 10:02:56;;;;;;;9.63;6.20;;;;;;;9.76;96.40;97923.06;4963196;28;20134;-66
2022/12/03 10:05:23;;;;;;;11.30;5.90;;;;;;;9.94;94.17;97888.47;4966146;28;20063;-57
2022/12/03 10:07:51;;;;;;;10.02;6.90;;;;;;;10.50;91.01;97926.31;4965215;28;20074;-63
2022/12/03 10:10:23;;;;;;;18.02;9.13;;;;;;;10.70;89.72;97919.03;4964031;28;20117;-67
2022/12/03 10:12:51;;;;;;;10.18;6.78;;;;;;;10.78;88.44;97943.00;4964183;28;20105;-65
2022/12/03 10:15:21;;;;;;;14.68;8.07;;;;;;;10.95;87.13;97914.22;4965715;28;20063;-57
2022/12/03 10:17:50;;;;;;;13.77;7.28;;;;;;;10.93;89.06;97919.28;4963869;28;20051;-60
2022/12/03 10:20:19;;;;;;;10.05;6.68;;;;;;;10.66;87.84;97840.50;4965496;28;20133;-57
2022/12/03 10:22:47;;;;;;;16.50;10.70;;;;;;;11.19;87.60;97909.38;4963625;28;20117;-61
2022/12/03 10:25:18;;;;;;;11.90;8.65;;;;;;;11.09;86.55;97889.66;4964076;28;20054;-57
2022/12/03 10:28:02;;;;;;;11.57;9.25;;;;;;;11.38;86.28;97905.94;4964981;28;20109;-57
2022/12/03 10:30:29;;;;;;;31.30;22.52;;;;;;;11.36;85.64;97905.50;4965822;28;20054;-62
2022/12/03 10:32:57;;;;;;;20.67;13.20;;;;;;;11.22;87.92;97907.88;4964588;28;20043;-57
2022/12/03 10:35:36;;;;;;;14.30;9.30;;;;;;;11.31;86.34;97901.00;4965295;28;20679;-59
2022/12/03 10:38:18;;;;;;;11.00;9.02;;;;;;;11.29;86.70;97896.97;4964081;28;20514;-58
2022/12/03 10:40:45;;;;;;;9.27;7.18;;;;;;;11.46;85.88;97905.00;4966029;28;20771;-57
2022/12/03 10:43:23;;;;;;;11.23;7.80;;;;;;;11.42;86.42;97906.84;4965758;28;20162;-56
2022/12/03 10:46:10;;;;;;;8.88;6.53;;;;;;;11.48;83.79;97894.31;4965970;28;20503;-62
2022/12/03 10:48:37;;;;;;;8.18;6.07;;;;;;;11.46;82.48;97907.75;4965813;28;20141;-56
2022/12/03 10:51:09;;;;;;;8.07;6.10;;;;;;;11.27;83.65;97854.94;4965673;28;20058;-62
2022/12/03 10:53:39;;;;;;;21.58;11.70;;;;;;;11.39;84.58;97874.25;4966024;28;20343;-56
2022/12/03 10:56:12;;;;;;;28.85;14.48;;;;;;;11.63;85.07;97897.16;4966243;28;20383;-62
2022/12/03 10:58:39;;;;;;;16.48;11.25;;;;;;;11.73;84.68;97895.81;4966248;28;20093;-62
2022/12/03 11:01:15;;;;;;;20.88;11.80;;;;;;;11.76;84.79;97903.44;4965524;28;20137;-56
2022/12/03 11:03:41;;;;;;;17.65;10.65;;;;;;;11.33;84.21;97887.59;4964780;28;20065;-62
2022/12/03 11:06:17;;;;;;;21.63;11.77;;;;;;;11.61;84.29;97893.09;4965486;28;20341;-61
2022/12/03 11:08:48;;;;;;;16.30;11.00;;;;;;;11.64;85.19;97893.22;4965184;28;20153;-56
2022/12/03 11:11:29;;;;;;;9.80;8.18;;;;;;;11.53;85.76;97891.28;4964992;28;20138;-63
2022/12/03 11:14:01;;;;;;;15.68;11.70;;;;;;;11.53;84.79;97885.75;4965613;28;20270;-61
2022/12/03 11:16:39;;;;;;;8.55;6.85;;;;;;;11.44;83.82;97894.25;4980088;28;20082;-63
2022/12/03 11:19:16;;;;;;;10.55;7.82;;;;;;;11.27;85.46;97894.53;4965768;28;20544;-57
2022/12/03 11:22:04;;;;;;;14.65;10.18;;;;;;;11.33;86.12;97881.25;4965636;28;20051;-63
2022/12/03 11:24:36;;;;;;;27.65;19.33;;;;;;;11.43;85.85;97887.06;4965626;28;20091;-62
2022/12/03 11:27:02;;;;;;;25.48;17.67;;;;;;;11.39;86.71;97888.13;4965372;28;20125;-57
2022/12/03 11:29:48;;;;;;;14.18;9.95;;;;;;;11.22;88.60;97885.69;4965007;28;20502;-62
2022/12/03 11:32:42;;;;;;;19.10;12.90;;;;;;;10.95;90.95;97892.03;4964978;28;20597;-57
2022/12/03 11:35:11;;;;;;;;;;;;;;;11.12;91.25;97883.41;4964321;28;20062;-57
2022/12/03 11:37:38;;;;;;;20.00;12.00;;;;;;;11.15;91.59;97885.47;4979861;28;20058;-63
2022/12/03 11:40:17;;;;;;;19.80;12.02;;;;;;;11.25;92.05;97885.78;4965034;28;20050;-62
2022/12/03 11:42:46;;;;;;;13.35;9.60;;;;;;;11.21;91.40;97875.72;4965321;28;20050;-58
2022/12/03 11:45:18;;;;;;;15.15;8.32;;;;;;;11.27;89.73;97882.66;4969013;28;20046;-61
2022/12/03 11:47:58;;;;;;;8.95;7.35;;;;;;;11.38;88.62;97886.53;4967875;28;20466;-56
2022/12/03 11:50:49;;;;;;;9.93;7.38;;;;;;;11.35;87.64;97887.25;4968785;28;20572;-57
2022/12/03 11:53:21;;;;;;;13.70;8.23;;;;;;;11.40;88.21;97892.50;4969186;28;20137;-58
2022/12/03 11:56:05;;;;;;;17.83;10.98;;;;;;;11.22;90.15;97863.50;4968696;28;20489;-62